Time;durP1;ratioP1;P1;durP2;ratioP2;P2;SDS_P1;SDS_P2;PMS_P1;PMS_P2;Temp;Humidity;BMP_temperature;BMP_pressure;BME280_temperature;BME280_humidity;BME280_pressure;Samples;Min_cycle;Max_cycle;Signal;HPM_P1;HPM_P2
2022/11/11 00:01:13;;;;;;;1.88;1.77;;;;;;;;;;5034710;28;20308;-86
2022/11/11 00:03:43;;;;;;;2.22;2.00;;;;;;;;;;5034814;28;20285;-85
2022/11/11 00:06:13;;;;;;;2.28;1.67;;;;;;;;;;5034752;28;20224;-85
2022/11/11 00:08:41;;;;;;;2.00;1.60;;;;;;;;;;5034615;28;20685;-85
2022/11/11 00:11:11;;;;;;;1.77;1.33;;;;;;;;;;5034763;28;20226;-85
2022/11/11 00:13:41;;;;;;;1.42;1.33;;;;;;;;;;5034883;28;20201;-85
2022/11/11 00:16:11;;;;;;;1.20;1.10;;;;;;;;;;5035172;28;20202;-85
2022/11/11 00:27:23;;;;;;;1.80;1.70;;;;;;;;;;4993164;28;20254;-86
2022/11/11 00:29:50;;;;;;;2.05;1.80;;;;;;;;;;4992363;28;20319;-86
2022/11/11 00:32:25;;;;;;;1.15;1.00;;;;;;;;;;5001549;28;20202;-85
2022/11/11 00:37:41;;;;;;;1.92;1.40;;;;;;;;;;5015047;28;20573;-85
2022/11/11 00:40:11;;;;;;;1.60;1.42;;;;;;;;;;5015173;28;20233;-85
2022/11/11 00:42:38;;;;;;;2.13;1.40;;;;;;;;;;5032720;28;20332;-86
2022/11/11 00:45:08;;;;;;;1.40;1.30;;;;;;;;;;5035675;28;20301;-86
2022/11/11 00:53:13;;;;;;;1.77;1.67;;;;;;;;;;5054973;28;20177;-86
2022/11/11 00:55:41;;;;;;;2.80;1.70;;;;;;;;;;5055112;28;20182;-85
2022/11/11 00:58:08;;;;;;;3.83;1.88;;;;;;;;;;5054079;28;20412;-86
2022/11/11 01:00:36;;;;;;;3.03;2.45;;;;;;;;;;5053454;28;20217;-85
2022/11/11 01:03:04;;;;;;;4.53;3.33;;;;;;;;;;5053312;28;20204;-85
2022/11/11 01:05:31;;;;;;;5.30;2.67;;;;;;;;;;5053481;28;20280;-85
2022/11/11 01:07:59;;;;;;;5.82;2.78;;;;;;;;;;5053148;28;20222;-85
2022/11/11 01:10:40;;;;;;;5.43;2.88;;;;;;;;;;5053399;28;20227;-85
2022/11/11 01:13:16;;;;;;;2.88;2.67;;;;;;;;;;5053425;28;20197;-86
2022/11/11 01:15:47;;;;;;;3.80;2.92;;;;;;;;;;5053709;28;20201;-86
2022/11/11 01:18:18;;;;;;;2.97;2.65;;;;;;;;;;5053441;28;20186;-85
2022/11/11 01:20:45;;;;;;;4.07;2.33;;;;;;;;;;5053519;28;20229;-85
2022/11/11 01:23:14;;;;;;;2.72;2.40;;;;;;;;;;5053272;28;20309;-86
2022/11/11 01:25:45;;;;;;;2.35;1.77;;;;;;;;;;5053369;28;20577;-85
2022/11/11 01:28:12;;;;;;;1.80;1.70;;;;;;;;;;5053238;28;20240;-85
2022/11/11 01:30:40;;;;;;;2.30;2.00;;;;;;;;;;5053138;28;20601;-86
2022/11/11 01:33:09;;;;;;;2.08;1.88;;;;;;;;;;5052947;28;20240;-86
2022/11/11 01:35:39;;;;;;;2.22;2.03;;;;;;;;;;5053192;28;20216;-85
2022/11/11 01:38:07;;;;;;;2.88;2.30;;;;;;;;;;5053056;28;20208;-85
2022/11/11 01:40:43;;;;;;;2.47;2.05;;;;;;;;;;5053256;28;20233;-85
2022/11/11 01:43:23;;;;;;;3.33;2.22;;;;;;;;;;5053111;28;20204;-85
2022/11/11 01:45:58;;;;;;;2.47;2.28;;;;;;;;;;5056379;28;20708;-85
2022/11/11 01:51:34;;;;;;;2.40;2.13;;;;;;;;;;5038902;28;20228;-85
2022/11/11 01:54:06;;;;;;;2.03;1.75;;;;;;;;;;5037129;28;20288;-85
2022/11/11 01:56:35;;;;;;;2.13;1.92;;;;;;;;;;5038012;28;20179;-85
2022/11/11 01:59:06;;;;;;;3.08;2.70;;;;;;;;;;5038767;28;20230;-86
2022/11/11 02:01:34;;;;;;;2.95;2.33;;;;;;;;;;5039986;28;20229;-85
2022/11/11 02:06:48;;;;;;;2.88;2.67;;;;;;;;;;5039747;28;20564;-86
2022/11/11 02:09:16;;;;;;;5.00;3.30;;;;;;;;;;5039818;28;20388;-86
2022/11/11 02:14:36;;;;;;;5.50;3.85;;;;;;;;;;5038946;28;20186;-85
2022/11/11 02:17:05;;;;;;;5.85;4.70;;;;;;;;;;5039222;28;20186;-86
2022/11/11 02:19:40;;;;;;;4.88;4.00;;;;;;;;;;5041924;28;20627;-85
2022/11/11 02:22:11;;;;;;;4.75;3.28;;;;;;;;;;5058215;28;20727;-85
2022/11/11 02:24:40;;;;;;;3.67;3.20;;;;;;;;;;5058789;28;20210;-85
2022/11/11 02:27:10;;;;;;;3.90;3.10;;;;;;;;;;5057915;28;20367;-86
2022/11/11 02:29:38;;;;;;;3.35;3.05;;;;;;;;;;5058107;28;20207;-86
2022/11/11 02:32:06;;;;;;;3.35;2.60;;;;;;;;;;5058179;28;20737;-85
2022/11/11 02:34:35;;;;;;;2.53;2.33;;;;;;;;;;5058499;28;20324;-85
2022/11/11 02:37:05;;;;;;;4.03;3.00;;;;;;;;;;5057866;28;20768;-85
2022/11/11 02:39:33;;;;;;;3.30;2.60;;;;;;;;;;5057952;28;20281;-88
2022/11/11 02:42:08;;;;;;;2.30;2.10;;;;;;;;;;5057775;28;20292;-85
2022/11/11 02:44:37;;;;;;;2.20;2.10;;;;;;;;;;5057778;28;20191;-85
2022/11/11 02:47:05;;;;;;;3.13;2.47;;;;;;;;;;5057477;28;20205;-85
2022/11/11 02:49:33;;;;;;;2.95;2.75;;;;;;;;;;5053913;28;20202;-86
2022/11/11 02:52:00;;;;;;;2.72;2.53;;;;;;;;;;5037707;28;20296;-85
2022/11/11 02:54:28;;;;;;;4.57;2.70;;;;;;;;;;5037628;28;20292;-86
2022/11/11 02:57:15;;;;;;;2.58;2.38;;;;;;;;;;5037203;28;20206;-85
2022/11/11 02:59:44;;;;;;;3.25;2.90;;;;;;;;;;5037158;28;20705;-85
2022/11/11 03:02:12;;;;;;;3.10;2.75;;;;;;;;;;5037723;28;20248;-85
2022/11/11 03:04:39;;;;;;;3.97;2.90;;;;;;;;;;5037336;28;20249;-85
2022/11/11 03:07:07;;;;;;;3.90;3.58;;;;;;;;;;5037736;28;20296;-85
2022/11/11 03:09:35;;;;;;;2.95;2.75;;;;;;;;;;5037328;28;20293;-85
2022/11/11 03:12:02;;;;;;;2.35;2.15;;;;;;;;;;5036865;28;20698;-85
2022/11/11 03:14:30;;;;;;;3.08;2.78;;;;;;;;;;5036823;28;20266;-85
2022/11/11 03:19:43;;;;;;;2.53;2.13;;;;;;;;;;5040721;28;20571;-85
2022/11/11 03:22:11;;;;;;;2.60;2.40;;;;;;;;;;5056499;28;20210;-85
2022/11/11 03:27:23;;;;;;;2.17;1.90;;;;;;;;;;5056172;28;20224;-85
2022/11/11 03:29:51;;;;;;;2.75;2.53;;;;;;;;;;5055493;28;20697;-85
2022/11/11 03:32:33;;;;;;;2.33;2.17;;;;;;;;;;5055868;28;20255;-84
2022/11/11 03:35:00;;;;;;;11.63;9.63;;;;;;;;;;5056030;28;20335;-85
2022/11/11 03:40:13;;;;;;;15.98;11.10;;;;;;;;;;5055228;28;20708;-85
2022/11/11 03:42:42;;;;;;;11.18;8.73;;;;;;;;;;5056179;28;20198;-85
2022/11/11 03:45:10;;;;;;;8.95;7.55;;;;;;;;;;5055437;28;20209;-85
2022/11/11 03:47:39;;;;;;;5.72;5.00;;;;;;;;;;5056027;28;20198;-85
2022/11/11 03:50:08;;;;;;;5.78;5.00;;;;;;;;;;5047111;28;20308;-85
2022/11/11 03:52:35;;;;;;;4.15;3.75;;;;;;;;;;5035400;28;20206;-86
2022/11/11 03:55:03;;;;;;;3.72;3.00;;;;;;;;;;5035493;28;20297;-85
2022/11/11 03:57:31;;;;;;;3.28;2.97;;;;;;;;;;5035409;28;20257;-85
2022/11/11 03:59:58;;;;;;;4.70;4.15;;;;;;;;;;5035050;28;20226;-85
2022/11/11 04:10:59;;;;;;;7.43;4.93;;;;;;;;;;5029337;28;20233;-86
2022/11/11 04:16:08;;;;;;;8.68;5.47;;;;;;;;;;5002911;28;20204;-85
2022/11/11 04:26:57;;;;;;;4.07;3.65;;;;;;;;;;5055054;28;20258;-85
2022/11/11 04:29:27;;;;;;;3.05;2.75;;;;;;;;;;5055210;28;20232;-86
2022/11/11 04:34:42;;;;;;;2.90;2.47;;;;;;;;;;5054546;28;20200;-85
2022/11/11 04:37:12;;;;;;;3.53;3.22;;;;;;;;;;5054733;28;20200;-85
2022/11/11 04:42:25;;;;;;;2.72;2.53;;;;;;;;;;5054402;28;20732;-84
2022/11/11 04:47:37;;;;;;;3.25;2.92;;;;;;;;;;5054348;28;20184;-85
2022/11/11 04:50:06;;;;;;;3.33;2.80;;;;;;;;;;5046367;28;20287;-85
2022/11/11 04:52:35;;;;;;;3.20;2.90;;;;;;;;;;5034369;28;20198;-85
2022/11/11 04:57:48;;;;;;;3.05;2.83;;;;;;;;;;5034185;28;20185;-85
2022/11/11 05:00:18;;;;;;;4.15;3.70;;;;;;;;;;5034497;28;20220;-84
2022/11/11 05:08:54;;;;;;;4.10;3.67;;;;;;;;;;5034642;28;20684;-84
2022/11/11 05:11:07;;;;;;;4.18;3.45;;;;;;;;;;5033954;28;20244;-84
2022/11/11 05:21:48;;;;;;;3.95;3.30;;;;;;;;;;5013979;28;20284;-85
2022/11/11 05:27:02;;;;;;;4.20;3.75;;;;;;;;;;5013728;28;20682;-85
2022/11/11 05:29:29;;;;;;;5.35;4.15;;;;;;;;;;5014322;28;20658;-84
2022/11/11 05:31:57;;;;;;;4.32;3.92;;;;;;;;;;5013616;28;20226;-85
2022/11/11 05:34:31;;;;;;;3.05;2.85;;;;;;;;;;5013986;28;20274;-85
2022/11/11 05:36:58;;;;;;;3.30;3.00;;;;;;;;;;5013930;28;20329;-85
2022/11/11 05:39:27;;;;;;;3.08;2.85;;;;;;;;;;5013887;28;20337;-84
2022/11/11 05:41:55;;;;;;;3.45;3.15;;;;;;;;;;5013703;28;20313;-82
2022/11/11 05:44:22;;;;;;;4.45;4.05;;;;;;;;;;5013927;28;20298;-82
2022/11/11 05:46:50;;;;;;;6.13;4.28;;;;;;;;;;5013308;28;20300;-82
2022/11/11 05:49:17;;;;;;;3.67;3.38;;;;;;;;;;5014118;28;20230;-81
2022/11/11 05:51:45;;;;;;;4.38;3.80;;;;;;;;;;5032908;28;20353;-81
2022/11/11 05:54:14;;;;;;;4.60;4.05;;;;;;;;;;5032953;28;20293;-81
2022/11/11 05:56:42;;;;;;;7.18;5.20;;;;;;;;;;5032059;28;20336;-81
2022/11/11 05:59:10;;;;;;;6.10;4.78;;;;;;;;;;5031923;28;20198;-80
2022/11/11 06:01:38;;;;;;;5.00;4.15;;;;;;;;;;5032932;28;20313;-82
2022/11/11 06:04:07;;;;;;;5.43;4.85;;;;;;;;;;5032673;28;20291;-81
2022/11/11 06:06:37;;;;;;;4.43;3.80;;;;;;;;;;5032976;28;20204;-81
2022/11/11 06:09:05;;;;;;;4.38;3.70;;;;;;;;;;5032611;28;20222;-81
2022/11/11 06:11:33;;;;;;;5.40;4.50;;;;;;;;;;5032361;28;20226;-82
2022/11/11 06:14:01;;;;;;;4.90;4.40;;;;;;;;;;5032267;28;20297;-80
2022/11/11 06:16:29;;;;;;;5.22;4.35;;;;;;;;;;5032360;28;20194;-80
2022/11/11 06:18:57;;;;;;;5.85;5.07;;;;;;;;;;5031960;28;20237;-80
2022/11/11 06:21:25;;;;;;;7.07;5.15;;;;;;;;;;5032233;28;20757;-81
2022/11/11 06:23:52;;;;;;;5.88;4.75;;;;;;;;;;5032729;28;20301;-81
2022/11/11 06:26:19;;;;;;;7.40;5.38;;;;;;;;;;5032628;28;20198;-82
2022/11/11 06:28:48;;;;;;;6.53;5.80;;;;;;;;;;5032731;28;20210;-80
2022/11/11 06:31:20;;;;;;;7.18;5.75;;;;;;;;;;5035178;28;20301;-82
2022/11/11 06:33:47;;;;;;;7.97;5.90;;;;;;;;;;5035822;28;20298;-80
2022/11/11 06:36:17;;;;;;;5.95;5.28;;;;;;;;;;5036635;28;20198;-84
2022/11/11 06:38:45;;;;;;;5.38;4.85;;;;;;;;;;5035434;28;20194;-80
2022/11/11 06:41:14;;;;;;;6.30;5.05;;;;;;;;;;5035955;28;20335;-81
2022/11/11 06:43:42;;;;;;;10.02;6.57;;;;;;;;;;5036668;28;20202;-81
2022/11/11 06:46:17;;;;;;;6.72;5.10;;;;;;;;;;5036888;28;20238;-81
2022/11/11 06:48:45;;;;;;;7.10;6.03;;;;;;;;;;5036250;28;20584;-81
2022/11/11 06:51:13;;;;;;;8.45;6.45;;;;;;;;;;5035662;28;20234;-81
2022/11/11 06:53:41;;;;;;;9.32;5.95;;;;;;;;;;5030470;28;20655;-80
2022/11/11 06:56:11;;;;;;;8.23;6.20;;;;;;;;;;5034240;28;20199;-80
2022/11/11 06:58:39;;;;;;;6.32;5.68;;;;;;;;;;5035410;28;20640;-79
2022/11/11 07:01:08;;;;;;;5.90;4.57;;;;;;;;;;5035234;28;20242;-80
2022/11/11 07:03:37;;;;;;;7.72;4.10;;;;;;;;;;5035168;28;20216;-80
2022/11/11 07:06:06;;;;;;;5.82;4.03;;;;;;;;;;5034723;28;20216;-81
2022/11/11 07:08:33;;;;;;;6.05;4.75;;;;;;;;;;5035955;28;20209;-79
2022/11/11 07:11:01;;;;;;;4.70;4.00;;;;;;;;;;5035032;28;20240;-80
2022/11/11 07:13:28;;;;;;;4.30;3.90;;;;;;;;;;5034682;28;20221;-80
2022/11/11 07:15:56;;;;;;;4.57;4.18;;;;;;;;;;5035108;28;20285;-81
2022/11/11 07:18:23;;;;;;;4.35;3.70;;;;;;;;;;5034513;28;20689;-78
2022/11/11 07:20:52;;;;;;;5.40;4.60;;;;;;;;;;5035222;28;20226;-81
2022/11/11 07:23:19;;;;;;;4.07;3.72;;;;;;;;;;5035000;28;20305;-80
2022/11/11 07:25:47;;;;;;;4.97;4.43;;;;;;;;;;5034599;28;20297;-80
2022/11/11 07:28:14;;;;;;;6.20;3.97;;;;;;;;;;5034080;28;20644;-80
2022/11/11 07:30:42;;;;;;;4.30;3.80;;;;;;;;;;5038638;22;20329;-79
2022/11/11 07:33:09;;;;;;;3.70;3.40;;;;;;;;;;5007906;28;20207;-78
2022/11/11 07:35:37;;;;;;;4.05;3.65;;;;;;;;;;5015340;28;20198;-76
2022/11/11 07:38:05;;;;;;;4.68;4.03;;;;;;;;;;5015138;28;20205;-79
2022/11/11 07:40:33;;;;;;;6.25;4.72;;;;;;;;;;5015257;28;20609;-76
2022/11/11 07:43:00;;;;;;;4.25;3.63;;;;;;;;;;5013648;28;20198;-78
2022/11/11 07:45:28;;;;;;;3.92;3.50;;;;;;;;;;5014514;28;20205;-78
2022/11/11 07:47:55;;;;;;;4.55;4.07;;;;;;;;;;5014461;28;20207;-78
2022/11/11 07:50:23;;;;;;;3.58;3.28;;;;;;;;;;5018507;28;20701;-78
2022/11/11 07:52:50;;;;;;;4.05;3.70;;;;;;;;;;5014696;28;20572;-78
2022/11/11 07:55:19;;;;;;;3.75;3.45;;;;;;;;;;5014851;28;20213;-78
2022/11/11 07:57:47;;;;;;;3.70;2.83;;;;;;;;;;5014885;28;20286;-78
2022/11/11 08:00:15;;;;;;;3.25;2.95;;;;;;;;;;5014916;28;20225;-78
2022/11/11 08:02:48;;;;;;;2.55;2.35;;;;;;;;;;5014602;28;20211;-78
2022/11/11 08:05:15;;;;;;;3.60;3.30;;;;;;;;;;5015132;28;20286;-77
2022/11/11 08:07:43;;;;;;;3.00;2.80;;;;;;;;;;5014766;28;20207;-78
2022/11/11 08:10:11;;;;;;;3.60;2.90;;;;;;;;;;5015275;28;20590;-78
2022/11/11 08:15:24;;;;;;;3.58;3.20;;;;;;;;;;5014840;28;20210;-78
2022/11/11 08:17:52;;;;;;;4.07;3.67;;;;;;;;;;5014337;28;20286;-79
2022/11/11 08:20:19;;;;;;;3.78;3.40;;;;;;;;;;5023962;28;20222;-78
2022/11/11 08:22:48;;;;;;;4.40;4.05;;;;;;;;;;5033833;28;20344;-78
2022/11/11 08:25:16;;;;;;;5.10;4.07;;;;;;;;;;5034289;28;20209;-79
2022/11/11 08:27:45;;;;;;;3.58;3.28;;;;;;;;;;5034501;28;20217;-77
2022/11/11 08:30:13;;;;;;;3.92;3.55;;;;;;;;;;5032490;28;20226;-77
2022/11/11 08:32:40;;;;;;;3.42;3.13;;;;;;;;;;5030045;28;20604;-77
2022/11/11 08:35:09;;;;;;;3.85;3.50;;;;;;;;;;5018037;28;20953;-77
2022/11/11 08:37:36;;;;;;;8.80;5.72;;;;;;;;;;5014231;28;21046;-78
2022/11/11 08:40:04;;;;;;;6.75;5.28;;;;;;;;;;5013207;28;20298;-77
2022/11/11 08:42:32;;;;;;;4.85;4.35;;;;;;;;;;5013923;28;20294;-78
2022/11/11 08:45:00;;;;;;;6.13;4.82;;;;;;;;;;5013053;28;20211;-77
2022/11/11 08:47:28;;;;;;;5.97;5.38;;;;;;;;;;5012857;28;20207;-77
2022/11/11 08:49:55;;;;;;;6.25;5.63;;;;;;;;;;5018609;28;20240;-77
2022/11/11 08:52:23;;;;;;;4.88;4.20;;;;;;;;;;5032224;28;20226;-77
2022/11/11 08:54:50;;;;;;;6.50;4.82;;;;;;;;;;5032208;28;20198;-76
2022/11/11 08:57:18;;;;;;;5.80;5.20;;;;;;;;;;5019970;28;20661;-79
2022/11/11 08:59:45;;;;;;;4.50;4.10;;;;;;;;;;5013253;28;20369;-77
2022/11/11 09:02:15;;;;;;;6.00;4.90;;;;;;;;;;5012588;28;20577;-78
2022/11/11 09:04:42;;;;;;;5.05;4.50;;;;;;;;;;5013438;28;20207;-79
2022/11/11 09:07:13;;;;;;;5.68;4.50;;;;;;;;;;5013130;28;20636;-78
2022/11/11 09:09:40;;;;;;;6.65;5.75;;;;;;;;;;5013336;28;20223;-80
2022/11/11 09:12:08;;;;;;;4.93;4.00;;;;;;;;;;5012900;28;20219;-80
2022/11/11 09:14:36;;;;;;;6.28;5.15;;;;;;;;;;5012870;28;20198;-79
2022/11/11 09:17:03;;;;;;;6.13;4.22;;;;;;;;;;5013406;28;20202;-77
2022/11/11 09:19:32;;;;;;;5.50;4.68;;;;;;;;;;5015544;28;20615;-77
2022/11/11 09:21:59;;;;;;;4.95;4.43;;;;;;;;;;5032593;28;20766;-77
2022/11/11 09:24:27;;;;;;;4.35;3.80;;;;;;;;;;5032546;28;20206;-78
2022/11/11 09:26:54;;;;;;;4.75;4.10;;;;;;;;;;5032585;28;20266;-78
2022/11/11 09:29:22;;;;;;;6.03;4.97;;;;;;;;;;5032133;28;20324;-78
2022/11/11 09:31:49;;;;;;;4.10;3.70;;;;;;;;;;5032521;28;20232;-80
2022/11/11 09:34:17;;;;;;;6.93;5.05;;;;;;;;;;5015344;28;20221;-79
2022/11/11 09:36:46;;;;;;;5.10;4.45;;;;;;;;;;5013841;28;20195;-79
2022/11/11 09:39:13;;;;;;;4.78;4.32;;;;;;;;;;5012419;28;20227;-79
2022/11/11 09:41:52;;;;;;;5.10;4.13;;;;;;;;;;5012599;28;20294;-80
2022/11/11 09:44:41;;;;;;;4.90;4.22;;;;;;;;;;5014079;28;20229;-78
2022/11/11 09:47:16;;;;;;;7.63;5.25;;;;;;;;;;5013822;28;20203;-78
2022/11/11 09:50:00;;;;;;;6.00;5.38;;;;;;;;;;5018203;28;20243;-79
2022/11/11 09:52:31;;;;;;;7.75;5.57;;;;;;;;;;5033481;28;20317;-78
2022/11/11 09:55:02;;;;;;;7.35;6.65;;;;;;;;;;5033775;28;20202;-79
2022/11/11 09:57:37;;;;;;;9.65;7.40;;;;;;;;;;5033635;28;20757;-78
2022/11/11 10:00:14;;;;;;;6.85;5.43;;;;;;;;;;4993564;28;20219;-79
2022/11/11 10:02:47;;;;;;;8.10;6.68;;;;;;;;;;4998783;28;20716;-80
2022/11/11 10:05:19;;;;;;;8.40;6.15;;;;;;;;;;5014899;28;20653;-80
2022/11/11 10:07:51;;;;;;;8.77;7.72;;;;;;;;;;5020339;28;20199;-79
2022/11/11 10:10:26;;;;;;;7.03;6.00;;;;;;;;;;5021731;28;20227;-78
2022/11/11 10:12:57;;;;;;;7.53;6.03;;;;;;;;;;5024370;28;20222;-79
2022/11/11 10:15:30;;;;;;;7.28;5.57;;;;;;;;;;5021698;28;20225;-79
2022/11/11 10:18:16;;;;;;;7.22;6.40;;;;;;;;;;5017695;28;20210;-78
2022/11/11 10:20:49;;;;;;;6.45;5.85;;;;;;;;;;5030173;28;20237;-79
2022/11/11 10:23:20;;;;;;;9.98;7.18;;;;;;;;;;5037614;28;20237;-79
2022/11/11 10:25:54;;;;;;;7.55;6.07;;;;;;;;;;5037936;28;20221;-78
2022/11/11 10:28:24;;;;;;;10.00;6.95;;;;;;;;;;5036978;28;20202;-79
2022/11/11 10:30:53;;;;;;;6.35;5.35;;;;;;;;;;5037646;28;20230;-81
2022/11/11 10:33:25;;;;;;;5.10;4.60;;;;;;;;;;5026018;28;20231;-78
2022/11/11 10:35:59;;;;;;;6.20;5.25;;;;;;;;;;5016912;28;20241;-79
2022/11/11 10:38:35;;;;;;;6.78;5.50;;;;;;;;;;5014824;28;20213;-78
2022/11/11 10:41:12;;;;;;;12.15;6.25;;;;;;;;;;4996412;28;20219;-80
2022/11/11 10:43:39;;;;;;;7.75;6.18;;;;;;;;;;4996406;28;20207;-78
2022/11/11 10:46:13;;;;;;;7.15;6.07;;;;;;;;;;5005427;28;20290;-79
2022/11/11 10:48:51;;;;;;;7.53;6.57;;;;;;;;;;5017172;28;20727;-80
2022/11/11 10:51:20;;;;;;;6.30;5.45;;;;;;;;;;5036038;28;20292;-80
2022/11/11 10:54:01;;;;;;;5.68;5.10;;;;;;;;;;5035963;28;20213;-80
2022/11/11 10:56:37;;;;;;;7.35;6.60;;;;;;;;;;5036276;28;20213;-78
2022/11/11 10:59:13;;;;;;;8.32;6.35;;;;;;;;;;5033133;28;20258;-80
2022/11/11 11:01:57;;;;;;;6.88;5.78;;;;;;;;;;5016381;28;20741;-79
2022/11/11 11:04:29;;;;;;;9.18;5.47;;;;;;;;;;5013782;28;20693;-78
2022/11/11 11:06:59;;;;;;;7.68;5.18;;;;;;;;;;5015337;28;20583;-80
2022/11/11 11:09:36;;;;;;;6.85;4.95;;;;;;;;;;5015268;28;20858;-79
2022/11/11 11:12:10;;;;;;;9.57;5.82;;;;;;;;;;5015776;28;20226;-80
2022/11/11 11:14:41;;;;;;;4.75;4.32;;;;;;;;;;5015376;28;20207;-79
2022/11/11 11:17:14;;;;;;;4.80;4.10;;;;;;;;;;5015144;28;20698;-80
2022/11/11 11:19:41;;;;;;;5.28;4.28;;;;;;;;;;5019753;28;20669;-79
2022/11/11 11:22:10;;;;;;;4.68;4.28;;;;;;;;;;5036006;28;20293;-79
2022/11/11 11:24:43;;;;;;;7.20;5.30;;;;;;;;;;5035801;28;20205;-80
2022/11/11 11:27:12;;;;;;;5.65;4.07;;;;;;;;;;5036108;28;20678;-80
2022/11/11 11:29:42;;;;;;;6.47;5.47;;;;;;;;;;5058595;22;20605;-80
2022/11/11 11:32:16;;;;;;;6.30;4.68;;;;;;;;;;5035208;28;20697;-79
2022/11/11 11:34:52;;;;;;;5.65;4.00;;;;;;;;;;5029435;28;20274;-79
2022/11/11 11:37:23;;;;;;;5.03;4.53;;;;;;;;;;5035313;28;20721;-79
2022/11/11 11:40:00;;;;;;;4.10;3.40;;;;;;;;;;5026774;28;20223;-79
2022/11/11 11:42:33;;;;;;;7.15;4.47;;;;;;;;;;5017417;28;20203;-79
2022/11/11 11:45:20;;;;;;;4.95;4.45;;;;;;;;;;5017405;28;20210;-79
2022/11/11 11:47:59;;;;;;;5.85;4.70;;;;;;;;;;5016946;28;20278;-78
2022/11/11 11:50:43;;;;;;;6.78;4.65;;;;;;;;;;5033989;28;20404;-78
2022/11/11 11:53:27;;;;;;;7.25;5.57;;;;;;;;;;5037934;28;20268;-79
2022/11/11 11:56:03;;;;;;;6.65;4.57;;;;;;;;;;5034930;28;20205;-79
2022/11/11 11:58:42;;;;;;;6.22;4.90;;;;;;;;;;5034749;28;20666;-79
2022/11/11 12:01:13;;;;;;;5.45;4.80;;;;;;;;;;5034554;28;20308;-80
2022/11/11 12:04:18;;;;;;;4.97;4.45;;;;;;;;;;5033728;28;20203;-79
2022/11/11 12:06:56;;;;;;;4.68;2.92;;;;;;;;;;5034548;28;20292;-79
2022/11/11 12:09:34;;;;;;;5.13;3.80;;;;;;;;;;5034268;28;20286;-78
2022/11/11 12:12:10;;;;;;;4.75;4.32;;;;;;;;;;5033381;28;20747;-79
2022/11/11 12:14:51;;;;;;;3.95;3.38;;;;;;;;;;5034174;28;20597;-79
2022/11/11 12:17:31;;;;;;;3.05;2.75;;;;;;;;;;5014461;28;20294;-79
2022/11/11 12:20:11;;;;;;;3.45;3.08;;;;;;;;;;5017447;28;20225;-79
2022/11/11 12:23:13;;;;;;;3.15;2.85;;;;;;;;;;5030877;28;20289;-78
2022/11/11 12:25:51;;;;;;;4.13;2.90;;;;;;;;;;5033767;28;20236;-78
2022/11/11 12:28:35;;;;;;;4.43;2.70;;;;;;;;;;5033105;28;20202;-78
2022/11/11 12:31:16;;;;;;;3.35;2.95;;;;;;;;;;5033575;28;20256;-78
2022/11/11 12:34:02;;;;;;;4.47;3.45;;;;;;;;;;5034336;28;20316;-78
2022/11/11 12:36:46;;;;;;;6.95;3.08;;;;;;;;;;5033528;28;20217;-78
2022/11/11 12:39:39;;;;;;;3.50;3.15;;;;;;;;;;5033080;28;20222;-77
2022/11/11 12:42:15;;;;;;;3.25;2.90;;;;;;;;;;5033702;28;20198;-78
2022/11/11 12:44:52;;;;;;;3.90;2.85;;;;;;;;;;5033774;28;20201;-78
2022/11/11 12:47:32;;;;;;;5.22;3.55;;;;;;;;;;5013817;28;20206;-78
2022/11/11 12:50:13;;;;;;;3.90;2.70;;;;;;;;;;5027534;28;20228;-78
2022/11/11 12:52:54;;;;;;;4.88;3.42;;;;;;;;;;5033382;28;20198;-78
2022/11/11 12:55:27;;;;;;;3.38;3.00;;;;;;;;;;5018923;28;20203;-79
2022/11/11 12:58:10;;;;;;;3.38;2.75;;;;;;;;;;5013730;28;20214;-78
2022/11/11 13:00:45;;;;;;;3.33;2.55;;;;;;;;;;5013215;28;20636;-78
2022/11/11 13:03:27;;;;;;;4.22;3.10;;;;;;;;;;5014015;28;20538;-78
2022/11/11 13:06:05;;;;;;;3.55;2.72;;;;;;;;;;5014621;28;20262;-79
2022/11/11 13:09:01;;;;;;;2.97;2.70;;;;;;;;;;5032798;28;20694;-78
2022/11/11 13:11:36;;;;;;;2.58;2.33;;;;;;;;;;5032810;28;20289;-78
2022/11/11 13:14:23;;;;;;;2.45;2.25;;;;;;;;;;5032519;28;20222;-77
2022/11/11 13:16:53;;;;;;;2.15;1.90;;;;;;;;;;5032667;28;20658;-77
2022/11/11 13:19:25;;;;;;;2.10;1.90;;;;;;;;;;5033691;28;20229;-80
2022/11/11 13:21:55;;;;;;;2.03;1.83;;;;;;;;;;5032791;28;20682;-79
2022/11/11 13:24:24;;;;;;;2.75;2.28;;;;;;;;;;5033175;28;20206;-78
2022/11/11 13:26:55;;;;;;;3.92;3.55;;;;;;;;;;5032749;28;20216;-79
2022/11/11 13:31:53;;;;;;;4.13;3.10;;;;;;;;;;5018743;28;20544;-84
2022/11/11 13:34:21;;;;;;;4.00;2.88;;;;;;;;;;5020371;28;20255;-83
2022/11/11 13:36:53;;;;;;;3.05;2.70;;;;;;;;;;5022326;28;20291;-84
2022/11/11 13:39:27;;;;;;;2.67;2.30;;;;;;;;;;5021155;28;20253;-82
2022/11/11 13:41:57;;;;;;;3.25;2.70;;;;;;;;;;5023734;28;20293;-83
2022/11/11 13:44:29;;;;;;;2.00;1.83;;;;;;;;;;5023328;28;20222;-83
2022/11/11 13:47:04;;;;;;;2.83;2.38;;;;;;;;;;5024266;28;20244;-83
2022/11/11 13:49:35;;;;;;;2.30;2.00;;;;;;;;;;5023266;28;20240;-82
2022/11/11 13:52:04;;;;;;;1.90;1.80;;;;;;;;;;5031312;28;20226;-83
2022/11/11 13:54:34;;;;;;;2.60;2.40;;;;;;;;;;5022688;28;20288;-83
2022/11/11 13:57:06;;;;;;;4.18;2.85;;;;;;;;;;5024648;28;20677;-84
2022/11/11 13:59:36;;;;;;;2.90;2.60;;;;;;;;;;5023428;28;20238;-83
2022/11/11 14:02:28;;;;;;;2.45;2.25;;;;;;;;;;5023967;28;20202;-83
2022/11/11 14:05:25;;;;;;;4.50;2.90;;;;;;;;;;5022738;28;20703;-84
2022/11/11 14:07:58;;;;;;;2.97;2.28;;;;;;;;;;5023758;28;20282;-84
2022/11/11 14:10:52;;;;;;;2.30;2.10;;;;;;;;;;5022723;28;20631;-83
2022/11/11 14:13:39;;;;;;;3.10;2.00;;;;;;;;;;5024385;28;20757;-83
2022/11/11 14:16:11;;;;;;;2.10;1.90;;;;;;;;;;5023596;28;20253;-83
2022/11/11 14:18:44;;;;;;;1.90;1.80;;;;;;;;;;5024721;28;20627;-84
2022/11/11 14:21:27;;;;;;;2.20;1.77;;;;;;;;;;5042105;28;20639;-84
2022/11/11 14:23:56;;;;;;;2.30;1.70;;;;;;;;;;5043134;28;20310;-83
2022/11/11 14:26:28;;;;;;;2.50;2.10;;;;;;;;;;5044301;28;20291;-84
2022/11/11 14:28:59;;;;;;;2.40;2.20;;;;;;;;;;5044983;28;20213;-83
2022/11/11 14:31:54;;;;;;;2.53;2.33;;;;;;;;;;5043620;28;20230;-84
2022/11/11 14:35:02;;;;;;;3.47;3.15;;;;;;;;;;5043958;28;20313;-83
2022/11/11 14:37:56;;;;;;;3.22;2.47;;;;;;;;;;5009877;28;20269;-85
2022/11/11 14:40:29;;;;;;;5.05;3.58;;;;;;;;;;5046557;28;20214;-86
2022/11/11 14:42:56;;;;;;;4.45;3.03;;;;;;;;;;5047287;28;20262;-86
2022/11/11 14:46:01;;;;;;;3.40;2.65;;;;;;;;;;5040932;28;20250;-83
2022/11/11 14:49:03;;;;;;;5.93;4.10;;;;;;;;;;5024041;28;20230;-83
2022/11/11 14:51:51;;;;;;;21.00;16.77;;;;;;;;;;5041246;28;20845;-83
2022/11/11 14:55:08;;;;;;;12.32;7.93;;;;;;;;;;5043277;28;20266;-83
2022/11/11 14:57:39;;;;;;;13.93;8.40;;;;;;;;;;4999632;28;20730;-84
2022/11/11 15:00:14;;;;;;;5.53;4.20;;;;;;;;;;5033003;28;20236;-85
2022/11/11 15:02:49;;;;;;;5.47;3.60;;;;;;;;;;5041449;28;20178;-84
2022/11/11 15:05:21;;;;;;;3.80;2.83;;;;;;;;;;5041102;28;20254;-84
2022/11/11 15:08:19;;;;;;;5.75;2.25;;;;;;;;;;5041062;28;20191;-84
2022/11/11 15:11:15;;;;;;;2.50;2.30;;;;;;;;;;5039599;28;20206;-83
2022/11/11 15:14:18;;;;;;;3.20;2.42;;;;;;;;;;5041674;28;20229;-83
2022/11/11 15:17:13;;;;;;;4.85;3.35;;;;;;;;;;5025771;28;20203;-84
2022/11/11 15:19:55;;;;;;;5.85;3.10;;;;;;;;;;5025842;28;20245;-83
2022/11/11 15:22:47;;;;;;;7.68;5.28;;;;;;;;;;5041683;28;20233;-83
2022/11/11 15:25:30;;;;;;;3.30;2.95;;;;;;;;;;5043382;28;20265;-84
2022/11/11 15:28:03;;;;;;;13.77;3.28;;;;;;;;;;5041107;28;20202;-84
2022/11/11 15:30:52;;;;;;;4.20;2.38;;;;;;;;;;5041868;28;20274;-82
2022/11/11 15:33:31;;;;;;;4.82;3.03;;;;;;;;;;5040056;28;20191;-84
2022/11/11 15:36:04;;;;;;;2.80;2.22;;;;;;;;;;5040422;28;20293;-84
2022/11/11 15:38:31;;;;;;;3.40;2.97;;;;;;;;;;5040599;28;20207;-84
2022/11/11 15:41:01;;;;;;;5.97;4.05;;;;;;;;;;5041813;28;20329;-84
2022/11/11 15:43:32;;;;;;;3.17;2.53;;;;;;;;;;5031712;28;20925;-84
2022/11/11 15:46:02;;;;;;;4.13;3.35;;;;;;;;;;5021826;28;20241;-84
2022/11/11 15:48:33;;;;;;;3.47;2.40;;;;;;;;;;5021720;28;20294;-83
2022/11/11 15:51:16;;;;;;;2.50;2.25;;;;;;;;;;5022453;28;20254;-83
2022/11/11 15:53:44;;;;;;;3.67;2.03;;;;;;;;;;5020718;28;20234;-83
2022/11/11 15:56:13;;;;;;;2.50;2.00;;;;;;;;;;5022249;28;20219;-83
2022/11/11 15:58:41;;;;;;;2.22;1.98;;;;;;;;;;5020585;28;20207;-84
2022/11/11 16:01:10;;;;;;;3.67;2.97;;;;;;;;;;5034585;28;20229;-83
2022/11/11 16:03:42;;;;;;;9.90;7.82;;;;;;;;;;5040854;28;20256;-83
2022/11/11 16:06:11;;;;;;;5.88;4.25;;;;;;;;;;5041000;28;20202;-83
2022/11/11 16:08:42;;;;;;;3.90;3.25;;;;;;;;;;5040853;28;20632;-83
2022/11/11 16:11:14;;;;;;;5.32;3.10;;;;;;;;;;5041200;28;20643;-83
2022/11/11 16:13:44;;;;;;;2.50;2.30;;;;;;;;;;5034545;28;20286;-84
2022/11/11 16:16:15;;;;;;;5.20;3.92;;;;;;;;;;5029653;28;20227;-82
2022/11/11 16:18:45;;;;;;;3.28;2.97;;;;;;;;;;5020944;28;20192;-83
2022/11/11 16:21:16;;;;;;;6.60;4.65;;;;;;;;;;5037554;28;20569;-82
2022/11/11 16:23:44;;;;;;;3.05;2.42;;;;;;;;;;5040337;28;20301;-83
2022/11/11 16:26:14;;;;;;;3.42;2.17;;;;;;;;;;5042032;28;20241;-82
2022/11/11 16:28:46;;;;;;;3.83;3.42;;;;;;;;;;5040184;28;20210;-83
2022/11/11 16:31:37;;;;;;;4.95;4.28;;;;;;;;;;5040566;28;20248;-83
2022/11/11 16:34:36;;;;;;;3.17;2.72;;;;;;;;;;5041107;28;20218;-84
2022/11/11 16:37:05;;;;;;;3.55;2.83;;;;;;;;;;5040319;28;20289;-84
2022/11/11 16:39:34;;;;;;;2.63;2.30;;;;;;;;;;5041051;28;20206;-83
2022/11/11 16:42:04;;;;;;;3.20;2.75;;;;;;;;;;5040769;28;20206;-84